sensor_id;sensor_type;location;lat;lon;timestamp;pressure;altitude;pressure_sealevel;temperature;humidity
31082;BME280;17737;52.586;13.284;2023-03-04T00:01:30;101379.63;;;1.56;86.57
31082;BME280;17737;52.586;13.284;2023-03-04T00:03:58;101374.13;;;1.59;86.62
31082;BME280;17737;52.586;13.284;2023-03-04T00:06:26;101369.22;;;1.67;86.55
31082;BME280;17737;52.586;13.284;2023-03-04T00:08:54;101367.84;;;1.74;86.13
31082;BME280;17737;52.586;13.284;2023-03-04T00:11:25;101360.84;;;1.73;86.45
31082;BME280;17737;52.586;13.284;2023-03-04T00:13:55;101358.19;;;1.73;86.38
31082;BME280;17737;52.586;13.284;2023-03-04T00:16:23;101354.75;;;1.71;86.44
31082;BME280;17737;52.586;13.284;2023-03-04T00:18:53;101359.59;;;1.78;86.14
31082;BME280;17737;52.586;13.284;2023-03-04T00:21:21;101357.81;;;1.79;86.24
31082;BME280;17737;52.586;13.284;2023-03-04T00:23:50;101361.19;;;1.81;85.94
31082;BME280;17737;52.586;13.284;2023-03-04T00:26:18;101366.97;;;1.87;86.06
31082;BME280;17737;52.586;13.284;2023-03-04T00:28:48;101362.50;;;1.88;85.50
31082;BME280;17737;52.586;13.284;2023-03-04T00:31:18;101355.00;;;1.94;85.19
31082;BME280;17737;52.586;13.284;2023-03-04T00:33:46;101349.22;;;1.88;85.22
31082;BME280;17737;52.586;13.284;2023-03-04T00:36:14;101339.06;;;1.94;84.82
31082;BME280;17737;52.586;13.284;2023-03-04T00:38:42;101342.19;;;2.01;84.71
31082;BME280;17737;52.586;13.284;2023-03-04T00:41:10;101343.03;;;2.01;84.85
31082;BME280;17737;52.586;13.284;2023-03-04T00:43:38;101349.19;;;2.02;84.55
31082;BME280;17737;52.586;13.284;2023-03-04T00:46:06;101336.25;;;2.10;84.05
31082;BME280;17737;52.586;13.284;2023-03-04T00:48:35;101332.25;;;2.17;83.66
31082;BME280;17737;52.586;13.284;2023-03-04T00:51:04;101344.78;;;2.15;83.93
31082;BME280;17737;52.586;13.284;2023-03-04T00:53:32;101335.13;;;2.26;83.76
31082;BME280;17737;52.586;13.284;2023-03-04T00:56:00;101335.25;;;2.25;83.30
31082;BME280;17737;52.586;13.284;2023-03-04T00:58:28;101334.84;;;2.31;83.24
31082;BME280;17737;52.586;13.284;2023-03-04T01:00:56;101329.53;;;2.31;82.57
31082;BME280;17737;52.586;13.284;2023-03-04T01:03:24;101327.22;;;2.39;82.68
31082;BME280;17737;52.586;13.284;2023-03-04T01:05:58;101323.78;;;2.37;82.72
31082;BME280;17737;52.586;13.284;2023-03-04T01:08:26;101320.31;;;2.36;82.54
31082;BME280;17737;52.586;13.284;2023-03-04T01:10:54;101317.81;;;2.33;82.67
31082;BME280;17737;52.586;13.284;2023-03-04T01:13:22;101322.09;;;2.36;82.95
31082;BME280;17737;52.586;13.284;2023-03-04T01:15:50;101325.31;;;2.41;82.78
31082;BME280;17737;52.586;13.284;2023-03-04T01:18:18;101335.09;;;2.40;82.43
31082;BME280;17737;52.586;13.284;2023-03-04T01:20:46;101330.84;;;2.38;82.87
31082;BME280;17737;52.586;13.284;2023-03-04T01:23:15;101310.94;;;2.43;82.76
31082;BME280;17737;52.586;13.284;2023-03-04T01:25:43;101304.47;;;2.47;82.64
31082;BME280;17737;52.586;13.284;2023-03-04T01:28:11;101307.34;;;2.44;82.13
31082;BME280;17737;52.586;13.284;2023-03-04T01:30:39;101293.19;;;2.44;82.52
31082;BME280;17737;52.586;13.284;2023-03-04T01:33:07;101298.66;;;2.55;82.28
31082;BME280;17737;52.586;13.284;2023-03-04T01:35:35;101291.31;;;2.59;82.17
31082;BME280;17737;52.586;13.284;2023-03-04T01:38:03;101291.31;;;2.59;82.24
31082;BME280;17737;52.586;13.284;2023-03-04T01:40:33;101291.41;;;2.57;82.23
31082;BME280;17737;52.586;13.284;2023-03-04T01:43:01;101283.00;;;2.63;82.34
31082;BME280;17737;52.586;13.284;2023-03-04T01:45:31;101285.56;;;2.65;82.35
31082;BME280;17737;52.586;13.284;2023-03-04T01:48:00;101284.50;;;2.67;82.33
31082;BME280;17737;52.586;13.284;2023-03-04T01:50:31;101281.53;;;2.72;82.24
31082;BME280;17737;52.586;13.284;2023-03-04T01:53:02;101282.38;;;2.72;82.31
31082;BME280;17737;52.586;13.284;2023-03-04T01:55:31;101271.09;;;2.81;82.09
31082;BME280;17737;52.586;13.284;2023-03-04T01:58:00;101276.22;;;2.84;82.04
31082;BME280;17737;52.586;13.284;2023-03-04T02:00:29;101268.53;;;2.80;81.88
31082;BME280;17737;52.586;13.284;2023-03-04T02:03:00;101270.91;;;2.84;82.10
31082;BME280;17737;52.586;13.284;2023-03-04T02:05:33;101268.94;;;2.86;81.89
31082;BME280;17737;52.586;13.284;2023-03-04T02:08:04;101273.00;;;2.92;82.07
31082;BME280;17737;52.586;13.284;2023-03-04T02:10:34;101262.56;;;2.89;82.38
31082;BME280;17737;52.586;13.284;2023-03-04T02:13:02;101258.19;;;3.00;81.87
31082;BME280;17737;52.586;13.284;2023-03-04T02:15:31;101257.44;;;2.98;82.12
31082;BME280;17737;52.586;13.284;2023-03-04T02:18:00;101246.81;;;2.98;82.13
31082;BME280;17737;52.586;13.284;2023-03-04T02:20:34;101253.50;;;3.04;82.19
31082;BME280;17737;52.586;13.284;2023-03-04T02:23:15;101258.94;;;3.02;82.26
31082;BME280;17737;52.586;13.284;2023-03-04T02:28:51;101245.41;;;3.05;82.40
31082;BME280;17737;52.586;13.284;2023-03-04T02:31:24;101236.78;;;3.14;82.45
31082;BME280;17737;52.586;13.284;2023-03-04T02:33:57;101238.81;;;3.11;82.41
31082;BME280;17737;52.586;13.284;2023-03-04T02:36:27;101231.69;;;3.11;82.64
31082;BME280;17737;52.586;13.284;2023-03-04T02:39:01;101231.47;;;3.14;82.27
31082;BME280;17737;52.586;13.284;2023-03-04T02:41:33;101224.22;;;3.16;82.46
31082;BME280;17737;52.586;13.284;2023-03-04T02:44:01;101227.53;;;3.20;82.43
31082;BME280;17737;52.586;13.284;2023-03-04T02:46:29;101228.66;;;3.28;82.30
31082;BME280;17737;52.586;13.284;2023-03-04T02:48:57;101219.53;;;3.20;82.21
31082;BME280;17737;52.586;13.284;2023-03-04T02:51:25;101218.56;;;3.21;82.52
31082;BME280;17737;52.586;13.284;2023-03-04T02:53:53;101218.22;;;3.25;82.49
31082;BME280;17737;52.586;13.284;2023-03-04T02:56:21;101220.69;;;3.28;82.68
31082;BME280;17737;52.586;13.284;2023-03-04T02:58:51;101220.88;;;3.25;82.64
31082;BME280;17737;52.586;13.284;2023-03-04T03:01:19;101225.03;;;3.29;82.41
31082;BME280;17737;52.586;13.284;2023-03-04T03:03:47;101218.72;;;3.30;82.78
31082;BME280;17737;52.586;13.284;2023-03-04T03:06:15;101221.41;;;3.30;82.88
31082;BME280;17737;52.586;13.284;2023-03-04T03:08:43;101219.72;;;3.29;83.03
31082;BME280;17737;52.586;13.284;2023-03-04T03:11:11;101224.81;;;3.32;83.38
31082;BME280;17737;52.586;13.284;2023-03-04T03:13:39;101214.16;;;3.32;83.39
31082;BME280;17737;52.586;13.284;2023-03-04T03:16:08;101208.59;;;3.35;83.53
31082;BME280;17737;52.586;13.284;2023-03-04T03:18:36;101211.72;;;3.29;83.98
31082;BME280;17737;52.586;13.284;2023-03-04T03:21:04;101207.13;;;3.31;83.97
31082;BME280;17737;52.586;13.284;2023-03-04T03:23:33;101200.59;;;3.35;83.54
31082;BME280;17737;52.586;13.284;2023-03-04T03:26:01;101202.22;;;3.38;83.72
31082;BME280;17737;52.586;13.284;2023-03-04T03:28:29;101199.19;;;3.42;83.52
31082;BME280;17737;52.586;13.284;2023-03-04T03:30:58;101190.16;;;3.45;83.28
31082;BME280;17737;52.586;13.284;2023-03-04T03:33:27;101194.50;;;3.46;83.25
31082;BME280;17737;52.586;13.284;2023-03-04T03:35:55;101183.84;;;3.46;83.30
31082;BME280;17737;52.586;13.284;2023-03-04T03:38:23;101183.22;;;3.42;83.37
31082;BME280;17737;52.586;13.284;2023-03-04T03:40:51;101182.28;;;3.43;83.96
31082;BME280;17737;52.586;13.284;2023-03-04T03:43:19;101185.38;;;3.37;83.73
31082;BME280;17737;52.586;13.284;2023-03-04T03:45:47;101182.50;;;3.40;83.79
31082;BME280;17737;52.586;13.284;2023-03-04T03:48:17;101186.75;;;3.43;83.65
31082;BME280;17737;52.586;13.284;2023-03-04T03:50:46;101177.69;;;3.45;83.74
31082;BME280;17737;52.586;13.284;2023-03-04T03:53:14;101178.63;;;3.44;83.71
31082;BME280;17737;52.586;13.284;2023-03-04T03:55:42;101173.81;;;3.49;83.66
31082;BME280;17737;52.586;13.284;2023-03-04T03:58:10;101184.25;;;3.52;83.54
31082;BME280;17737;52.586;13.284;2023-03-04T04:00:38;101162.63;;;3.57;83.64
31082;BME280;17737;52.586;13.284;2023-03-04T04:03:06;101168.50;;;3.49;83.56
31082;BME280;17737;52.586;13.284;2023-03-04T04:05:34;101170.09;;;3.52;83.89
31082;BME280;17737;52.586;13.284;2023-03-04T04:08:04;101168.06;;;3.55;83.68
31082;BME280;17737;52.586;13.284;2023-03-04T04:10:32;101174.97;;;3.58;83.80
31082;BME280;17737;52.586;13.284;2023-03-04T04:13:00;101168.69;;;3.59;83.49
31082;BME280;17737;52.586;13.284;2023-03-04T04:15:28;101163.97;;;3.62;83.38
31082;BME280;17737;52.586;13.284;2023-03-04T04:17:56;101159.59;;;3.61;83.46
31082;BME280;17737;52.586;13.284;2023-03-04T04:20:24;101161.31;;;3.62;83.46
31082;BME280;17737;52.586;13.284;2023-03-04T04:22:51;101155.75;;;3.65;83.43
31082;BME280;17737;52.586;13.284;2023-03-04T04:25:21;101167.59;;;3.61;83.49
31082;BME280;17737;52.586;13.284;2023-03-04T04:27:49;101160.09;;;3.66;83.47
31082;BME280;17737;52.586;13.284;2023-03-04T04:30:17;101160.72;;;3.70;83.42
31082;BME280;17737;52.586;13.284;2023-03-04T04:32:45;101152.84;;;3.68;83.64
31082;BME280;17737;52.586;13.284;2023-03-04T04:35:13;101158.06;;;3.70;83.59
31082;BME280;17737;52.586;13.284;2023-03-04T04:37:41;101153.47;;;3.72;83.31
31082;BME280;17737;52.586;13.284;2023-03-04T04:40:10;101146.78;;;3.66;83.71
31082;BME280;17737;52.586;13.284;2023-03-04T04:42:40;101148.25;;;3.71;83.56
31082;BME280;17737;52.586;13.284;2023-03-04T04:45:09;101148.28;;;3.82;83.01
31082;BME280;17737;52.586;13.284;2023-03-04T04:47:37;101143.19;;;3.79;83.19
31082;BME280;17737;52.586;13.284;2023-03-04T04:50:06;101154.75;;;3.90;83.00
31082;BME280;17737;52.586;13.284;2023-03-04T04:52:35;101146.03;;;3.88;82.82
31082;BME280;17737;52.586;13.284;2023-03-04T04:55:04;101145.06;;;3.89;82.73
31082;BME280;17737;52.586;13.284;2023-03-04T04:57:32;101139.34;;;3.83;83.20
31082;BME280;17737;52.586;13.284;2023-03-04T05:00:03;101150.50;;;3.88;82.66
31082;BME280;17737;52.586;13.284;2023-03-04T05:02:32;101144.56;;;3.95;82.82
31082;BME280;17737;52.586;13.284;2023-03-04T05:05:01;101138.41;;;3.95;82.42
31082;BME280;17737;52.586;13.284;2023-03-04T05:07:30;101139.59;;;3.91;83.04
31082;BME280;17737;52.586;13.284;2023-03-04T05:09:58;101136.50;;;3.97;83.01
31082;BME280;17737;52.586;13.284;2023-03-04T05:12:26;101131.88;;;3.99;82.96
31082;BME280;17737;52.586;13.284;2023-03-04T05:14:54;101137.56;;;4.05;82.84
31082;BME280;17737;52.586;13.284;2023-03-04T05:17:23;101134.78;;;3.96;83.20
31082;BME280;17737;52.586;13.284;2023-03-04T05:19:51;101134.53;;;3.99;83.32
31082;BME280;17737;52.586;13.284;2023-03-04T05:22:19;101132.72;;;3.99;83.08
31082;BME280;17737;52.586;13.284;2023-03-04T05:24:47;101130.78;;;4.01;83.58
31082;BME280;17737;52.586;13.284;2023-03-04T05:27:15;101121.56;;;4.05;82.76
31082;BME280;17737;52.586;13.284;2023-03-04T05:29:43;101127.78;;;4.06;83.07
31082;BME280;17737;52.586;13.284;2023-03-04T05:32:12;101132.59;;;4.01;82.76
31082;BME280;17737;52.586;13.284;2023-03-04T05:34:42;101132.97;;;4.07;83.02
31082;BME280;17737;52.586;13.284;2023-03-04T05:37:09;101121.84;;;4.13;83.08
31082;BME280;17737;52.586;13.284;2023-03-04T05:39:38;101127.03;;;4.04;83.10
31082;BME280;17737;52.586;13.284;2023-03-04T05:42:07;101129.38;;;4.08;83.21
31082;BME280;17737;52.586;13.284;2023-03-04T05:44:34;101132.84;;;4.09;83.23
31082;BME280;17737;52.586;13.284;2023-03-04T05:47:03;101133.47;;;4.12;83.41
31082;BME280;17737;52.586;13.284;2023-03-04T05:49:31;101132.66;;;4.12;83.21
31082;BME280;17737;52.586;13.284;2023-03-04T05:52:00;101127.66;;;4.07;83.35
31082;BME280;17737;52.586;13.284;2023-03-04T05:54:28;101126.44;;;4.11;83.34
31082;BME280;17737;52.586;13.284;2023-03-04T05:56:56;101115.19;;;4.08;83.54
31082;BME280;17737;52.586;13.284;2023-03-04T05:59:24;101114.81;;;4.12;83.75
31082;BME280;17737;52.586;13.284;2023-03-04T06:01:52;101121.25;;;4.10;83.74
31082;BME280;17737;52.586;13.284;2023-03-04T06:04:20;101124.78;;;4.10;83.73
31082;BME280;17737;52.586;13.284;2023-03-04T06:06:48;101117.59;;;4.11;84.04
31082;BME280;17737;52.586;13.284;2023-03-04T06:09:18;101128.13;;;4.12;84.01
31082;BME280;17737;52.586;13.284;2023-03-04T06:11:46;101129.50;;;4.18;83.78
31082;BME280;17737;52.586;13.284;2023-03-04T06:14:14;101133.16;;;4.17;83.83
31082;BME280;17737;52.586;13.284;2023-03-04T06:16:43;101130.22;;;4.20;83.89
31082;BME280;17737;52.586;13.284;2023-03-04T06:19:11;101133.59;;;4.11;84.74
31082;BME280;17737;52.586;13.284;2023-03-04T06:21:39;101130.69;;;4.14;84.65
31082;BME280;17737;52.586;13.284;2023-03-04T06:24:06;101125.59;;;4.11;85.09
31082;BME280;17737;52.586;13.284;2023-03-04T06:26:36;101131.91;;;4.10;85.36
31082;BME280;17737;52.586;13.284;2023-03-04T06:29:04;101126.34;;;4.13;85.61
31082;BME280;17737;52.586;13.284;2023-03-04T06:31:33;101124.66;;;4.12;85.71
31082;BME280;17737;52.586;13.284;2023-03-04T06:34:01;101134.56;;;4.10;86.39
31082;BME280;17737;52.586;13.284;2023-03-04T06:36:29;101130.59;;;4.15;86.74
31082;BME280;17737;52.586;13.284;2023-03-04T06:38:57;101131.78;;;4.11;87.15
31082;BME280;17737;52.586;13.284;2023-03-04T06:41:25;101127.28;;;4.01;87.20
31082;BME280;17737;52.586;13.284;2023-03-04T06:43:54;101127.88;;;4.04;87.64
31082;BME280;17737;52.586;13.284;2023-03-04T06:46:23;101137.94;;;4.01;87.67
31082;BME280;17737;52.586;13.284;2023-03-04T06:48:51;101136.25;;;4.00;87.93
31082;BME280;17737;52.586;13.284;2023-03-04T06:51:19;101130.91;;;4.00;88.33
31082;BME280;17737;52.586;13.284;2023-03-04T06:53:47;101135.38;;;3.99;88.28
31082;BME280;17737;52.586;13.284;2023-03-04T06:56:15;101143.38;;;3.99;88.89
31082;BME280;17737;52.586;13.284;2023-03-04T06:58:44;101136.50;;;4.08;88.33
31082;BME280;17737;52.586;13.284;2023-03-04T07:01:16;101146.66;;;4.03;89.03
31082;BME280;17737;52.586;13.284;2023-03-04T07:03:47;101137.06;;;4.00;89.17
31082;BME280;17737;52.586;13.284;2023-03-04T07:06:17;101147.28;;;4.06;89.60
31082;BME280;17737;52.586;13.284;2023-03-04T07:08:47;101148.84;;;4.09;89.75
31082;BME280;17737;52.586;13.284;2023-03-04T07:11:17;101161.06;;;4.00;90.41
31082;BME280;17737;52.586;13.284;2023-03-04T07:13:45;101155.41;;;4.05;90.09
31082;BME280;17737;52.586;13.284;2023-03-04T07:16:17;101158.31;;;4.02;90.57
31082;BME280;17737;52.586;13.284;2023-03-04T07:18:47;101150.34;;;4.13;90.35
31082;BME280;17737;52.586;13.284;2023-03-04T07:21:16;101153.34;;;4.08;90.09
31082;BME280;17737;52.586;13.284;2023-03-04T07:23:45;101151.44;;;4.10;90.13
31082;BME280;17737;52.586;13.284;2023-03-04T07:26:13;101147.41;;;4.16;90.16
31082;BME280;17737;52.586;13.284;2023-03-04T07:28:41;101149.88;;;4.30;89.62
31082;BME280;17737;52.586;13.284;2023-03-04T07:31:11;101142.88;;;4.29;89.84
31082;BME280;17737;52.586;13.284;2023-03-04T07:33:46;101153.13;;;4.22;90.36
31082;BME280;17737;52.586;13.284;2023-03-04T07:36:14;101151.56;;;4.20;90.92
31082;BME280;17737;52.586;13.284;2023-03-04T07:38:46;101149.97;;;4.17;91.26
31082;BME280;17737;52.586;13.284;2023-03-04T07:41:16;101141.84;;;4.08;91.96
31082;BME280;17737;52.586;13.284;2023-03-04T07:43:45;101142.56;;;4.10;91.87
31082;BME280;17737;52.586;13.284;2023-03-04T07:46:13;101141.03;;;4.18;91.77
31082;BME280;17737;52.586;13.284;2023-03-04T07:48:42;101138.69;;;4.14;92.28
31082;BME280;17737;52.586;13.284;2023-03-04T07:51:14;101142.94;;;4.16;91.81
31082;BME280;17737;52.586;13.284;2023-03-04T07:53:45;101141.75;;;4.20;91.62
31082;BME280;17737;52.586;13.284;2023-03-04T07:56:15;101142.47;;;4.22;90.98
31082;BME280;17737;52.586;13.284;2023-03-04T07:58:45;101135.94;;;4.26;90.80
31082;BME280;17737;52.586;13.284;2023-03-04T08:01:15;101143.94;;;4.26;91.41
31082;BME280;17737;52.586;13.284;2023-03-04T08:03:44;101142.47;;;4.22;90.83
31082;BME280;17737;52.586;13.284;2023-03-04T08:06:15;101147.59;;;4.25;91.14
31082;BME280;17737;52.586;13.284;2023-03-04T08:08:45;101143.69;;;4.29;91.19
31082;BME280;17737;52.586;13.284;2023-03-04T08:11:16;101133.03;;;4.29;90.85
31082;BME280;17737;52.586;13.284;2023-03-04T08:13:45;101136.44;;;4.31;90.66
31082;BME280;17737;52.586;13.284;2023-03-04T08:16:15;101135.47;;;4.32;90.58
31082;BME280;17737;52.586;13.284;2023-03-04T08:18:45;101134.38;;;4.35;89.93
31082;BME280;17737;52.586;13.284;2023-03-04T08:21:18;101133.53;;;4.45;89.72
31082;BME280;17737;52.586;13.284;2023-03-04T08:23:47;101132.81;;;4.43;89.26
31082;BME280;17737;52.586;13.284;2023-03-04T08:26:23;101137.78;;;4.48;88.03
31082;BME280;17737;52.586;13.284;2023-03-04T08:28:54;101134.16;;;4.49;86.64
31082;BME280;17737;52.586;13.284;2023-03-04T08:31:23;101136.44;;;4.53;87.41
31082;BME280;17737;52.586;13.284;2023-03-04T08:33:51;101138.28;;;4.64;86.85
31082;BME280;17737;52.586;13.284;2023-03-04T08:36:20;101125.66;;;4.66;86.16
31082;BME280;17737;52.586;13.284;2023-03-04T08:38:48;101122.84;;;4.78;84.89
31082;BME280;17737;52.586;13.284;2023-03-04T08:41:16;101127.34;;;4.89;83.44
31082;BME280;17737;52.586;13.284;2023-03-04T08:43:44;101120.91;;;4.92;81.90
31082;BME280;17737;52.586;13.284;2023-03-04T08:46:12;101119.81;;;4.94;79.98
31082;BME280;17737;52.586;13.284;2023-03-04T08:48:40;101115.31;;;4.95;79.03
31082;BME280;17737;52.586;13.284;2023-03-04T08:51:10;101117.63;;;4.99;78.46
31082;BME280;17737;52.586;13.284;2023-03-04T08:53:40;101115.81;;;5.11;78.30
31082;BME280;17737;52.586;13.284;2023-03-04T08:56:09;101117.34;;;5.13;77.99
31082;BME280;17737;52.586;13.284;2023-03-04T08:58:38;101109.69;;;5.20;77.32
31082;BME280;17737;52.586;13.284;2023-03-04T09:01:07;101110.28;;;5.23;77.44
31082;BME280;17737;52.586;13.284;2023-03-04T09:03:38;101105.41;;;5.39;77.21
31082;BME280;17737;52.586;13.284;2023-03-04T09:06:07;101107.34;;;5.37;76.11
31082;BME280;17737;52.586;13.284;2023-03-04T09:08:38;101113.41;;;5.39;77.23
31082;BME280;17737;52.586;13.284;2023-03-04T09:11:07;101103.91;;;5.46;76.73
31082;BME280;17737;52.586;13.284;2023-03-04T09:13:36;101114.38;;;5.38;76.58
31082;BME280;17737;52.586;13.284;2023-03-04T09:16:08;101107.34;;;5.37;77.21
31082;BME280;17737;52.586;13.284;2023-03-04T09:18:40;101118.97;;;5.47;77.21
31082;BME280;17737;52.586;13.284;2023-03-04T09:21:09;101122.22;;;5.51;76.36
31082;BME280;17737;52.586;13.284;2023-03-04T09:23:38;101120.44;;;5.40;76.97
31082;BME280;17737;52.586;13.284;2023-03-04T09:26:18;101121.38;;;5.50;77.06
31082;BME280;17737;52.586;13.284;2023-03-04T09:28:49;101125.69;;;5.62;76.87
31082;BME280;17737;52.586;13.284;2023-03-04T09:31:18;101122.81;;;5.54;75.73
31082;BME280;17737;52.586;13.284;2023-03-04T09:33:47;101127.66;;;5.60;75.21
31082;BME280;17737;52.586;13.284;2023-03-04T09:36:16;101132.31;;;5.58;75.41
31082;BME280;17737;52.586;13.284;2023-03-04T09:38:44;101128.38;;;5.62;75.61
31082;BME280;17737;52.586;13.284;2023-03-04T09:41:15;101137.19;;;5.74;75.14
31082;BME280;17737;52.586;13.284;2023-03-04T09:43:48;101139.59;;;5.88;75.26
31082;BME280;17737;52.586;13.284;2023-03-04T09:46:32;101128.94;;;5.77;74.35
31082;BME280;17737;52.586;13.284;2023-03-04T09:49:05;101123.97;;;5.72;74.45
31082;BME280;17737;52.586;13.284;2023-03-04T09:51:42;101133.47;;;5.65;75.07
31082;BME280;17737;52.586;13.284;2023-03-04T09:54:20;101131.72;;;5.86;75.34
31082;BME280;17737;52.586;13.284;2023-03-04T09:57:12;101131.41;;;6.21;74.40
31082;BME280;17737;52.586;13.284;2023-03-04T09:59:58;101131.31;;;6.32;73.63
31082;BME280;17737;52.586;13.284;2023-03-04T10:02:41;101129.22;;;6.36;72.86
31082;BME280;17737;52.586;13.284;2023-03-04T10:05:16;101119.72;;;6.22;72.39
31082;BME280;17737;52.586;13.284;2023-03-04T10:07:54;101135.03;;;5.99;73.51
31082;BME280;17737;52.586;13.284;2023-03-04T10:10:28;101129.78;;;6.09;73.50
31082;BME280;17737;52.586;13.284;2023-03-04T10:13:01;101124.34;;;5.99;72.51
31082;BME280;17737;52.586;13.284;2023-03-04T10:15:36;101127.88;;;6.00;71.94
31082;BME280;17737;52.586;13.284;2023-03-04T10:18:13;101125.59;;;5.95;72.05
31082;BME280;17737;52.586;13.284;2023-03-04T10:20:52;101128.50;;;6.13;71.85
31082;BME280;17737;52.586;13.284;2023-03-04T10:23:24;101128.72;;;6.21;71.06
31082;BME280;17737;52.586;13.284;2023-03-04T10:25:55;101126.81;;;6.33;70.25
31082;BME280;17737;52.586;13.284;2023-03-04T10:28:26;101128.13;;;5.97;70.29
31082;BME280;17737;52.586;13.284;2023-03-04T10:31:01;101117.13;;;5.90;71.17
31082;BME280;17737;52.586;13.284;2023-03-04T10:33:34;101125.06;;;6.01;69.91
31082;BME280;17737;52.586;13.284;2023-03-04T10:36:04;101130.03;;;5.85;69.04
31082;BME280;17737;52.586;13.284;2023-03-04T10:38:41;101121.88;;;5.87;68.70
31082;BME280;17737;52.586;13.284;2023-03-04T10:41:13;101128.50;;;5.92;68.38
31082;BME280;17737;52.586;13.284;2023-03-04T10:43:49;101123.13;;;6.03;68.43
31082;BME280;17737;52.586;13.284;2023-03-04T10:46:26;101125.75;;;6.15;67.72
31082;BME280;17737;52.586;13.284;2023-03-04T10:48:54;101114.94;;;6.05;66.90
31082;BME280;17737;52.586;13.284;2023-03-04T10:51:24;101130.16;;;6.04;66.95
31082;BME280;17737;52.586;13.284;2023-03-04T10:53:57;101127.94;;;6.09;67.12
31082;BME280;17737;52.586;13.284;2023-03-04T10:56:33;101136.94;;;6.29;66.67
31082;BME280;17737;52.586;13.284;2023-03-04T11:02:20;101138.25;;;6.65;66.09
31082;BME280;17737;52.586;13.284;2023-03-04T11:05:04;101137.91;;;6.79;65.70
31082;BME280;17737;52.586;13.284;2023-03-04T11:07:38;101136.97;;;6.39;65.99
31082;BME280;17737;52.586;13.284;2023-03-04T11:10:23;101135.84;;;6.62;65.48
31082;BME280;17737;52.586;13.284;2023-03-04T11:12:58;101137.84;;;6.39;66.11
31082;BME280;17737;52.586;13.284;2023-03-04T11:15:30;101136.66;;;6.53;65.67
31082;BME280;17737;52.586;13.284;2023-03-04T11:18:19;101138.75;;;6.79;64.46
31082;BME280;17737;52.586;13.284;2023-03-04T11:20:53;101132.56;;;6.79;62.92
31082;BME280;17737;52.586;13.284;2023-03-04T11:23:31;101134.16;;;6.91;62.33
31082;BME280;17737;52.586;13.284;2023-03-04T11:26:09;101141.03;;;6.84;61.67
31082;BME280;17737;52.586;13.284;2023-03-04T11:28:47;101137.50;;;6.83;61.24
31082;BME280;17737;52.586;13.284;2023-03-04T11:31:26;101142.22;;;7.00;61.57
31082;BME280;17737;52.586;13.284;2023-03-04T11:34:00;101146.19;;;7.06;62.06
31082;BME280;17737;52.586;13.284;2023-03-04T11:36:49;101147.78;;;6.88;61.49
31082;BME280;17737;52.586;13.284;2023-03-04T11:39:28;101143.88;;;6.92;61.24
31082;BME280;17737;52.586;13.284;2023-03-04T11:42:06;101148.97;;;6.65;61.92
31082;BME280;17737;52.586;13.284;2023-03-04T11:44:45;101148.22;;;6.53;61.63
31082;BME280;17737;52.586;13.284;2023-03-04T11:47:31;101147.06;;;6.26;62.47
31082;BME280;17737;52.586;13.284;2023-03-04T11:50:28;101147.97;;;6.15;62.42
31082;BME280;17737;52.586;13.284;2023-03-04T11:53:30;101147.56;;;6.40;62.65
31082;BME280;17737;52.586;13.284;2023-03-04T11:56:26;101135.72;;;6.33;62.53
31082;BME280;17737;52.586;13.284;2023-03-04T11:59:29;101143.97;;;6.09;62.51
31082;BME280;17737;52.586;13.284;2023-03-04T12:02:16;101148.22;;;6.12;61.51
31082;BME280;17737;52.586;13.284;2023-03-04T12:05:04;101152.94;;;6.20;61.27
31082;BME280;17737;52.586;13.284;2023-03-04T12:08:07;101145.09;;;6.28;61.10
31082;BME280;17737;52.586;13.284;2023-03-04T12:10:54;101143.72;;;6.54;60.01
31082;BME280;17737;52.586;13.284;2023-03-04T12:17:00;101143.28;;;6.28;60.37
31082;BME280;17737;52.586;13.284;2023-03-04T12:19:46;101142.16;;;6.31;60.48
31082;BME280;17737;52.586;13.284;2023-03-04T12:22:35;101138.56;;;6.21;60.59
31082;BME280;17737;52.586;13.284;2023-03-04T12:25:40;101148.41;;;6.41;60.52
31082;BME280;17737;52.586;13.284;2023-03-04T12:28:31;101134.25;;;6.50;60.00
31082;BME280;17737;52.586;13.284;2023-03-04T12:31:33;101140.81;;;6.66;59.57
31082;BME280;17737;52.586;13.284;2023-03-04T12:34:32;101131.59;;;6.59;57.94
31082;BME280;17737;52.586;13.284;2023-03-04T12:37:41;101148.16;;;6.44;58.58
31082;BME280;17737;52.586;13.284;2023-03-04T12:40:26;101138.38;;;6.54;58.32
31082;BME280;17737;52.586;13.284;2023-03-04T12:43:19;101137.28;;;6.66;58.35
31082;BME280;17737;52.586;13.284;2023-03-04T12:46:20;101138.75;;;6.79;57.78
31082;BME280;17737;52.586;13.284;2023-03-04T12:49:07;101139.28;;;6.43;58.21
31082;BME280;17737;52.586;13.284;2023-03-04T12:51:55;101144.19;;;6.38;58.31
31082;BME280;17737;52.586;13.284;2023-03-04T12:54:38;101141.28;;;6.51;58.06
31082;BME280;17737;52.586;13.284;2023-03-04T12:57:11;101133.00;;;6.54;58.22
31082;BME280;17737;52.586;13.284;2023-03-04T12:59:45;101137.22;;;6.56;58.36
31082;BME280;17737;52.586;13.284;2023-03-04T13:02:28;101145.25;;;6.56;58.38
31082;BME280;17737;52.586;13.284;2023-03-04T13:05:14;101138.59;;;6.51;57.93
31082;BME280;17737;52.586;13.284;2023-03-04T13:07:58;101139.28;;;6.73;57.81
31082;BME280;17737;52.586;13.284;2023-03-04T13:10:33;101141.06;;;6.63;57.43
31082;BME280;17737;52.586;13.284;2023-03-04T13:13:02;101137.38;;;6.55;58.92
31082;BME280;17737;52.586;13.284;2023-03-04T13:15:34;101146.19;;;6.46;58.67
31082;BME280;17737;52.586;13.284;2023-03-04T13:18:29;101140.31;;;6.52;58.89
31082;BME280;17737;52.586;13.284;2023-03-04T13:21:06;101141.22;;;6.62;58.60
31082;BME280;17737;52.586;13.284;2023-03-04T13:23:48;101143.91;;;6.62;59.15
31082;BME280;17737;52.586;13.284;2023-03-04T13:26:23;101144.53;;;6.54;59.33